Fort Myers, FL

5:50 PM EDT on July 27, 2016 (GMT -0400)
Southwest Florida International | | Change Station

Elev 30 ft 26.54 °N, 81.76 °W | Updated 57 minutes ago

Scattered Clouds
Scattered Clouds
89 °F
Feels Like 98 °F
N
13
Wind Variable Wind from WSW

Today
High -- | Low -- °F
--% Chance of Precip.
Yesterday
High -- | Low -- °F
Precip. -- in
Pressure 30.01 in
Visibility 10.0 miles
Clouds Scattered Clouds 4500 ft
Heat Index 98 °F
Dew Point 74 °F
Humidity 61%
Rainfall 0.00 in
Snow Depth Not available.
6:49 AM 8:16 PM
Last Quarter, 39% visible
METAR KRSW 272053Z 25011KT 10SM SCT045 32/23 A3001 RMK AO2 LTG DSNT S SLP161 T03170233 56014
Pressure 30.01 in
Visibility 10.0 miles
Clouds Scattered Clouds 4500 ft
Heat Index 98 °F
Dew Point 74 °F
Humidity 61%
Rainfall 0.00 in
Snow Depth Not available.
6:49 AM 8:16 PM
Last Quarter, 39% visible
METAR KRSW 272053Z 25011KT 10SM SCT045 32/23 A3001 RMK AO2 LTG DSNT S SLP161 T03170233 56014

10-Day Weather Forecast

Almanac

Astronomy

Jul. 27, 2016 Rise Set
Actual Time
Civil Twilight
Nautical Twilight
Astronomical Twilight
Moon
Length of Visible Light
Length of Day
Tomorrow will be .
, % of the Moon is Illuminated

Today's Extremes

State Highs State Lows

Community

WunderPhotos

Upload Photos

1,927,944 photos uploaded!

WunderBlog® & News

Nearby

Air Quality

  Air Quality AQ Index Pollutant
Not available.

Snow Depth

Station Depth Elevation

Earthquake Activity

City Distance Mag. Time & Date
Minimum magnitude displayed is 2.5.

Coastal Water Temperatures

Place Temperature

Stations

Nearby Weather Stations

Station Location Temp. Windchill Dew Point Humidity Wind Precip. Elev Updated Type
                   

Watches & Warnings

There are currently no watches in effect.